createdAt,value
2023-04-04T00:00:21.848Z,34.62
2023-04-04T00:02:49.624Z,33.78
2023-04-04T00:05:16.628Z,34.39
2023-04-04T00:07:47.351Z,36.26
2023-04-04T00:10:14.970Z,33.10
2023-04-04T00:12:42.917Z,33.59
2023-04-04T00:15:11.274Z,35.14
2023-04-04T00:17:38.292Z,34.41
2023-04-04T00:20:05.597Z,34.50
2023-04-04T00:22:32.405Z,32.96
2023-04-04T00:24:59.296Z,34.15
2023-04-04T00:27:26.382Z,35.43
2023-04-04T00:29:53.414Z,33.71
2023-04-04T00:32:20.792Z,33.77
2023-04-04T00:34:53.309Z,34.22
2023-04-04T00:37:21.732Z,35.08
2023-04-04T00:39:49.470Z,35.42
2023-04-04T00:42:16.362Z,33.30
2023-04-04T00:44:43.356Z,34.57
2023-04-04T00:47:11.331Z,33.60
2023-04-04T00:49:38.063Z,35.31
2023-04-04T00:52:07.717Z,35.30
2023-04-04T00:54:35.735Z,36.85
2023-04-04T00:57:05.411Z,35.61
2023-04-04T00:59:33.015Z,35.03
2023-04-04T01:02:00.833Z,33.98
2023-04-04T01:04:31.562Z,33.25
2023-04-04T01:06:59.871Z,34.55
2023-04-04T01:09:27.856Z,34.90
2023-04-04T01:11:57.396Z,34.61
2023-04-04T01:14:26.293Z,33.98
2023-04-04T01:16:54.588Z,35.55
2023-04-04T01:19:53.269Z,34.16
2023-04-04T01:22:21.916Z,33.76
2023-04-04T01:24:49.773Z,35.59
2023-04-04T01:27:17.433Z,35.31
2023-04-04T01:29:53.304Z,35.06
2023-04-04T01:32:27.827Z,33.64
2023-04-04T01:35:21.372Z,33.41
2023-04-04T01:38:28.112Z,33.75
2023-04-04T01:41:03.838Z,34.90
2023-04-04T01:43:33.163Z,35.92
2023-04-04T01:46:02.106Z,35.93
2023-04-04T01:48:30.148Z,35.46
2023-04-04T01:51:02.034Z,33.56
2023-04-04T01:53:29.168Z,34.24
2023-04-04T01:55:56.803Z,33.88
2023-04-04T01:58:24.038Z,33.92
2023-04-04T02:00:51.033Z,35.19
2023-04-04T02:03:18.074Z,35.35
2023-04-04T02:05:45.217Z,34.14
2023-04-04T02:08:12.421Z,35.13
2023-04-04T02:10:47.678Z,35.70
2023-04-04T02:13:14.532Z,36.64
2023-04-04T02:15:42.645Z,36.98
2023-04-04T02:18:09.682Z,36.49
2023-04-04T02:20:36.731Z,35.56
2023-04-04T02:23:03.508Z,36.05
2023-04-04T02:25:30.577Z,33.96
2023-04-04T02:27:57.365Z,35.15
2023-04-04T02:30:24.168Z,36.76
2023-04-04T02:32:51.806Z,34.73
2023-04-04T02:35:20.903Z,34.15
2023-04-04T02:37:48.012Z,35.93
2023-04-04T02:40:22.636Z,34.68
2023-04-04T02:42:49.424Z,34.47
2023-04-04T02:45:16.525Z,34.10
2023-04-04T02:47:52.221Z,34.54
2023-04-04T02:50:23.673Z,35.33
2023-04-04T02:53:03.256Z,35.25
2023-04-04T02:55:33.237Z,33.91
2023-04-04T02:58:02.082Z,35.18
2023-04-04T03:00:29.394Z,35.25
2023-04-04T03:02:57.847Z,34.92
2023-04-04T03:05:32.154Z,34.17
2023-04-04T03:07:59.817Z,33.34
2023-04-04T03:10:31.692Z,34.22
2023-04-04T03:12:59.562Z,33.61
2023-04-04T03:15:28.421Z,33.31
2023-04-04T03:17:55.364Z,32.40
2023-04-04T03:20:26.647Z,35.08
2023-04-04T03:22:53.453Z,35.61
2023-04-04T03:25:20.801Z,34.20
2023-04-04T03:27:47.657Z,33.60
2023-04-04T03:30:21.176Z,33.59
2023-04-04T03:32:48.721Z,34.01
2023-04-04T03:35:16.309Z,34.67
2023-04-04T03:37:43.296Z,33.80
2023-04-04T03:40:10.875Z,32.86
2023-04-04T03:42:38.373Z,34.23
2023-04-04T03:45:09.493Z,34.32
2023-04-04T03:47:37.582Z,34.68
2023-04-04T03:50:04.712Z,33.22
2023-04-04T03:52:37.281Z,34.34
2023-04-04T03:55:04.335Z,33.56
2023-04-04T03:57:31.839Z,34.14
2023-04-04T03:59:58.759Z,35.29
2023-04-04T04:02:25.702Z,35.31
2023-04-04T04:04:52.772Z,33.36
2023-04-04T04:07:19.544Z,33.50
2023-04-04T04:09:46.785Z,34.13
2023-04-04T04:12:13.766Z,33.69
2023-04-04T04:14:42.197Z,33.61
2023-04-04T04:17:09.520Z,34.86
2023-04-04T04:19:36.520Z,33.07
2023-04-04T04:22:03.309Z,35.26
2023-04-04T04:24:30.504Z,35.14
2023-04-04T04:26:58.801Z,34.44
2023-04-04T04:29:26.029Z,34.48
2023-04-04T04:31:53.426Z,35.52
2023-04-04T04:34:23.454Z,34.85
2023-04-04T04:36:51.247Z,33.65
2023-04-04T04:39:22.665Z,34.24
2023-04-04T04:42:09.699Z,33.79
2023-04-04T04:44:44.117Z,34.55
2023-04-04T04:47:11.439Z,33.21
2023-04-04T04:49:39.148Z,33.41
2023-04-04T04:52:09.730Z,32.54
2023-04-04T04:54:40.156Z,33.97
2023-04-04T04:57:07.621Z,35.11
2023-04-04T04:59:37.617Z,33.94
2023-04-04T05:02:04.730Z,33.33
2023-04-04T05:04:36.844Z,34.64
2023-04-04T05:07:07.778Z,33.83
2023-04-04T05:09:34.634Z,34.61
2023-04-04T05:12:02.095Z,34.33
2023-04-04T05:14:37.700Z,32.99
2023-04-04T05:17:05.246Z,32.76
2023-04-04T05:19:33.753Z,34.40
2023-04-04T05:22:01.994Z,34.77
2023-04-04T05:24:37.233Z,33.68
2023-04-04T05:27:04.177Z,35.25
2023-04-04T05:29:38.048Z,33.50
2023-04-04T05:32:05.438Z,33.57
2023-04-04T05:34:34.546Z,33.29
2023-04-04T05:37:05.952Z,33.23
2023-04-04T05:39:33.975Z,36.84
2023-04-04T05:42:05.325Z,31.30
2023-04-04T05:44:37.333Z,29.60
2023-04-04T05:47:05.997Z,31.14
2023-04-04T05:49:33.200Z,33.27
2023-04-04T05:52:02.703Z,33.94
2023-04-04T05:54:31.325Z,34.97
2023-04-04T05:57:01.579Z,36.85
2023-04-04T05:59:44.352Z,34.42
2023-04-04T06:02:14.458Z,33.24
2023-04-04T06:04:46.548Z,34.53
2023-04-04T06:07:18.712Z,35.04
2023-04-04T06:09:45.567Z,33.10
2023-04-04T06:12:13.011Z,30.98
2023-04-04T06:14:40.573Z,33.23
2023-04-04T06:17:08.995Z,33.50
2023-04-04T06:19:35.736Z,31.67
2023-04-04T06:22:02.776Z,30.92
2023-04-04T06:24:33.366Z,30.00
2023-04-04T06:27:01.914Z,32.31
2023-04-04T06:29:29.404Z,32.04
2023-04-04T06:31:59.669Z,31.50
2023-04-04T06:34:35.710Z,32.70
2023-04-04T06:37:03.676Z,32.46
2023-04-04T06:39:36.726Z,36.20
2023-04-04T06:42:08.831Z,35.26
2023-04-04T06:44:36.708Z,32.97
2023-04-04T06:47:03.642Z,30.63
2023-04-04T06:49:30.456Z,31.03
2023-04-04T06:51:58.036Z,30.01
2023-04-04T06:54:25.635Z,31.20
2023-04-04T06:56:53.132Z,29.38
2023-04-04T06:59:20.589Z,32.83
2023-04-04T07:01:47.400Z,34.75
2023-04-04T07:04:14.944Z,34.04
2023-04-04T07:06:42.385Z,33.30
2023-04-04T07:09:18.546Z,31.90
2023-04-04T07:11:53.034Z,30.56
2023-04-04T07:14:20.632Z,33.32
2023-04-04T07:16:47.509Z,31.86
2023-04-04T07:19:15.089Z,31.54
2023-04-04T07:21:41.901Z,29.55
2023-04-04T07:24:09.644Z,28.45
2023-04-04T07:26:36.440Z,30.95
2023-04-04T07:29:03.449Z,30.09
2023-04-04T07:31:30.558Z,30.79
2023-04-04T07:33:57.585Z,31.01
2023-04-04T07:36:24.339Z,31.95
2023-04-04T07:38:51.358Z,30.53
2023-04-04T07:41:18.303Z,29.63
2023-04-04T07:43:45.398Z,31.33
2023-04-04T07:46:12.288Z,29.98
2023-04-04T07:48:39.264Z,28.93
2023-04-04T07:51:06.236Z,30.01
2023-04-04T07:53:33.396Z,29.07
2023-04-04T07:56:06.387Z,29.43
2023-04-04T07:58:34.234Z,29.29
2023-04-04T08:01:02.507Z,28.85
2023-04-04T08:03:30.339Z,27.72
2023-04-04T08:05:57.475Z,29.68
2023-04-04T08:08:24.404Z,29.24
2023-04-04T08:10:51.210Z,30.65
2023-04-04T08:13:18.031Z,29.30
2023-04-04T08:15:45.608Z,25.48
2023-04-04T08:18:12.787Z,26.77
2023-04-04T08:20:39.925Z,29.56
2023-04-04T08:23:06.869Z,28.88
2023-04-04T08:25:35.004Z,27.51
2023-04-04T08:28:04.456Z,30.08
2023-04-04T08:30:31.933Z,30.11
2023-04-04T08:32:59.456Z,28.69
2023-04-04T08:35:26.489Z,29.96
2023-04-04T08:37:53.687Z,27.23
2023-04-04T08:40:20.876Z,28.47
2023-04-04T08:42:50.538Z,28.96
2023-04-04T08:45:19.145Z,30.17
2023-04-04T08:47:48.701Z,25.46
2023-04-04T08:50:17.287Z,25.61
2023-04-04T08:52:45.762Z,27.38
2023-04-04T08:55:13.488Z,27.73
2023-04-04T08:57:41.013Z,25.89
2023-04-04T09:00:09.163Z,26.85
2023-04-04T09:03:17.882Z,28.98
2023-04-04T09:05:46.015Z,27.77
2023-04-04T09:08:13.540Z,25.54
2023-04-04T09:10:44.272Z,27.92
2023-04-04T09:13:16.301Z,27.63
2023-04-04T09:15:48.337Z,25.21
2023-04-04T09:18:16.450Z,26.26
2023-04-04T09:20:45.061Z,27.19
2023-04-04T09:23:20.830Z,25.45
2023-04-04T09:28:25.585Z,24.99
2023-04-04T09:30:52.950Z,24.58
2023-04-04T09:33:22.041Z,26.52
2023-04-04T09:35:56.198Z,26.12
2023-04-04T09:38:28.464Z,23.69
2023-04-04T09:40:57.011Z,25.29
2023-04-04T09:43:25.458Z,25.31
2023-04-04T09:45:55.311Z,23.60
2023-04-04T09:48:27.554Z,23.68
2023-04-04T09:50:55.021Z,24.53
2023-04-04T09:53:21.831Z,23.40
2023-04-04T09:55:53.182Z,22.63
2023-04-04T09:58:28.125Z,24.10
2023-04-04T10:00:59.468Z,24.04
2023-04-04T10:03:28.657Z,23.88
2023-04-04T10:05:58.023Z,24.21
2023-04-04T10:08:27.361Z,25.25
2023-04-04T10:11:09.804Z,24.43
2023-04-04T10:13:46.740Z,23.42
2023-04-04T10:16:14.225Z,22.88
2023-04-04T10:18:41.564Z,20.23
2023-04-04T10:23:42.546Z,20.83
2023-04-04T10:26:10.014Z,21.30
2023-04-04T10:28:37.098Z,20.30
2023-04-04T10:31:39.613Z,17.18
2023-04-04T10:34:34.051Z,22.91
2023-04-04T10:37:13.248Z,22.68
2023-04-04T10:39:52.283Z,22.97
2023-04-04T10:42:19.466Z,20.83
2023-04-04T10:44:47.319Z,20.07
2023-04-04T10:47:14.715Z,19.42
2023-04-04T10:49:47.120Z,18.58
2023-04-04T10:52:16.497Z,17.07
2023-04-04T10:54:45.086Z,18.82
2023-04-04T10:57:16.977Z,21.81
2023-04-04T11:00:07.779Z,24.30
2023-04-04T11:02:58.092Z,20.36
2023-04-04T11:05:34.650Z,20.12
2023-04-04T11:08:08.843Z,16.08
2023-04-04T11:10:38.349Z,17.78
2023-04-04T11:13:22.683Z,19.97
2023-04-04T11:15:59.843Z,23.78
2023-04-04T11:18:34.289Z,20.96
2023-04-04T11:21:07.468Z,17.25
2023-04-04T11:23:49.485Z,21.09
2023-04-04T11:26:35.906Z,22.51
2023-04-04T11:29:04.636Z,22.30
2023-04-04T11:31:35.601Z,24.23
2023-04-04T11:34:29.278Z,22.71
2023-04-04T11:36:56.547Z,24.95
2023-04-04T11:39:31.383Z,22.77
2023-04-04T11:42:05.311Z,18.65
2023-04-04T11:44:39.867Z,18.41
2023-04-04T11:47:06.830Z,19.17
2023-04-04T11:49:36.526Z,16.72
2023-04-04T11:52:09.322Z,20.56
2023-04-04T11:54:37.996Z,22.10
2023-04-04T11:57:18.087Z,22.55
2023-04-04T11:59:47.762Z,19.53
2023-04-04T12:02:24.835Z,16.84
2023-04-04T12:04:52.798Z,16.44
2023-04-04T12:07:20.097Z,15.47
2023-04-04T12:09:48.279Z,19.78
2023-04-04T12:12:20.002Z,22.81
2023-04-04T12:14:47.972Z,19.42
2023-04-04T12:17:16.731Z,16.75
2023-04-04T12:19:44.762Z,15.19
2023-04-04T12:22:11.912Z,19.27
2023-04-04T12:24:38.833Z,20.11
2023-04-04T12:27:06.805Z,16.07
2023-04-04T12:29:37.774Z,17.95
2023-04-04T12:32:06.537Z,16.88
2023-04-04T12:34:34.674Z,15.71
2023-04-04T12:37:03.960Z,16.65
2023-04-04T12:39:31.932Z,22.62
2023-04-04T12:42:01.827Z,23.47
2023-04-04T12:44:42.131Z,24.46
2023-04-04T12:47:11.482Z,23.43
2023-04-04T12:49:38.325Z,18.86
2023-04-04T12:52:07.566Z,17.44
2023-04-04T12:54:39.991Z,22.53
2023-04-04T12:57:08.233Z,19.93
2023-04-04T12:59:36.885Z,20.09
2023-04-04T13:02:09.121Z,22.27
2023-04-04T13:04:36.103Z,18.08
2023-04-04T13:07:04.223Z,17.16
2023-04-04T13:09:32.319Z,18.01
2023-04-04T13:12:04.897Z,16.33
2023-04-04T13:15:00.057Z,18.58
2023-04-04T13:17:40.242Z,17.68
2023-04-04T13:20:08.261Z,18.04
2023-04-04T13:22:36.893Z,17.08
2023-04-04T13:25:05.208Z,18.71
2023-04-04T13:27:32.699Z,19.36
2023-04-04T13:29:59.504Z,20.59
2023-04-04T13:32:26.419Z,19.92
2023-04-04T13:34:53.267Z,19.19
2023-04-04T13:37:20.843Z,19.82
2023-04-04T13:39:48.012Z,19.32
2023-04-04T13:42:14.780Z,21.93
2023-04-04T13:44:41.612Z,22.15
2023-04-04T13:47:08.400Z,22.02
2023-04-04T13:49:35.178Z,23.78
2023-04-04T13:52:02.430Z,21.34
2023-04-04T13:54:29.242Z,24.09
2023-04-04T13:56:57.523Z,22.01
2023-04-04T13:59:24.410Z,23.18
2023-04-04T14:01:51.396Z,22.51
2023-04-04T14:04:23.913Z,22.04
2023-04-04T14:06:51.339Z,21.93
2023-04-04T14:09:18.955Z,21.76
2023-04-04T14:11:46.486Z,23.20
2023-04-04T14:14:13.418Z,22.17
2023-04-04T14:16:40.563Z,23.08
2023-04-04T14:19:07.683Z,21.80
2023-04-04T14:21:34.953Z,19.63
2023-04-04T14:24:02.765Z,21.68
2023-04-04T14:26:29.558Z,20.81
2023-04-04T14:28:57.061Z,19.97
2023-04-04T14:31:23.910Z,21.04
2023-04-04T14:33:50.809Z,20.84
2023-04-04T14:36:19.159Z,19.14
2023-04-04T14:38:46.513Z,19.81
2023-04-04T14:41:13.818Z,18.89
2023-04-04T14:43:40.626Z,20.56
2023-04-04T14:46:08.459Z,18.96
2023-04-04T14:48:35.425Z,19.94
2023-04-04T14:51:02.869Z,19.91
2023-04-04T14:53:30.260Z,22.93
2023-04-04T14:55:57.292Z,20.39
2023-04-04T14:58:24.084Z,20.65
2023-04-04T15:00:51.963Z,21.82
2023-04-04T15:03:19.478Z,22.03
2023-04-04T15:05:46.474Z,21.52
2023-04-04T15:08:13.533Z,22.24
2023-04-04T15:10:40.586Z,22.98
2023-04-04T15:13:07.904Z,20.24
2023-04-04T15:15:34.852Z,19.52
2023-04-04T15:18:02.344Z,20.01
2023-04-04T15:20:29.927Z,17.90
2023-04-04T15:22:56.712Z,18.76
2023-04-04T15:25:24.052Z,20.14
2023-04-04T15:27:50.838Z,19.62
2023-04-04T15:30:19.901Z,18.28
2023-04-04T15:32:46.794Z,19.76
2023-04-04T15:35:19.851Z,21.43
2023-04-04T15:37:49.734Z,20.14
2023-04-04T15:40:17.675Z,19.75
2023-04-04T15:42:46.539Z,20.83
2023-04-04T15:45:14.451Z,20.94
2023-04-04T15:47:41.982Z,21.23
2023-04-04T15:50:09.353Z,22.19
2023-04-04T15:52:36.202Z,22.72
2023-04-04T15:55:07.545Z,23.18
2023-04-04T15:57:35.137Z,21.89
2023-04-04T16:00:02.094Z,21.44
2023-04-04T16:02:35.116Z,22.04
2023-04-04T16:05:02.327Z,20.69
2023-04-04T16:07:29.312Z,21.22
2023-04-04T16:09:56.324Z,22.57
2023-04-04T16:12:23.405Z,22.54
2023-04-04T16:14:50.918Z,23.06
2023-04-04T16:17:17.667Z,21.48
2023-04-04T16:19:44.560Z,23.08
2023-04-04T16:22:13.691Z,21.29
2023-04-04T16:24:40.583Z,25.79
2023-04-04T16:27:07.505Z,24.29
2023-04-04T16:29:35.255Z,23.67
2023-04-04T16:32:02.216Z,23.96
2023-04-04T16:34:29.224Z,21.57
2023-04-04T16:36:56.091Z,23.48
2023-04-04T16:39:23.258Z,23.40
2023-04-04T16:41:50.699Z,24.34
2023-04-04T16:44:17.529Z,22.40
2023-04-04T16:46:44.642Z,22.90
2023-04-04T16:49:11.517Z,22.94
2023-04-04T16:51:38.736Z,23.12
2023-04-04T16:54:06.304Z,22.97
2023-04-04T16:56:33.169Z,23.08
2023-04-04T16:59:00.555Z,24.03
2023-04-04T17:01:27.572Z,24.56
2023-04-04T17:03:54.464Z,24.60
2023-04-04T17:06:21.234Z,24.56
2023-04-04T17:08:49.840Z,22.01
2023-04-04T17:11:17.054Z,23.13
2023-04-04T17:13:43.902Z,23.62
2023-04-04T17:16:10.882Z,24.60
2023-04-04T17:18:37.788Z,24.52
2023-04-04T17:21:05.074Z,23.85
2023-04-04T17:23:32.066Z,24.06
2023-04-04T17:25:58.838Z,22.57
2023-04-04T17:28:25.752Z,22.62
2023-04-04T17:30:52.811Z,23.08
2023-04-04T17:33:21.214Z,23.22
2023-04-04T17:35:48.416Z,23.36
2023-04-04T17:38:15.496Z,24.02
2023-04-04T17:40:42.348Z,23.88
2023-04-04T17:43:09.515Z,24.47
2023-04-04T17:45:36.515Z,25.79
2023-04-04T17:48:04.313Z,25.99
2023-04-04T17:50:31.358Z,26.40
2023-04-04T17:52:58.176Z,27.39
2023-04-04T17:55:25.043Z,29.16
2023-04-04T17:57:51.930Z,30.31
2023-04-04T18:00:19.359Z,29.74
2023-04-04T18:02:46.543Z,28.89
2023-04-04T18:05:13.924Z,29.72
2023-04-04T18:07:41.313Z,29.45
2023-04-04T18:10:09.190Z,28.68
2023-04-04T18:12:36.621Z,28.15
2023-04-04T18:15:05.171Z,27.76
2023-04-04T18:17:33.352Z,27.36
2023-04-04T18:20:03.241Z,29.42
2023-04-04T18:22:30.654Z,29.81
2023-04-04T18:24:57.534Z,29.66
2023-04-04T18:27:24.975Z,28.15
2023-04-04T18:29:51.854Z,28.54
2023-04-04T18:32:18.845Z,31.50
2023-04-04T18:34:46.336Z,30.73
2023-04-04T18:37:13.132Z,29.88
2023-04-04T18:39:40.183Z,29.29
2023-04-04T18:42:08.658Z,30.32
2023-04-04T18:44:35.646Z,30.18
2023-04-04T18:47:05.642Z,30.13
2023-04-04T18:49:33.179Z,29.32
2023-04-04T18:52:00.553Z,29.81
2023-04-04T18:54:27.753Z,29.06
2023-04-04T18:56:56.162Z,28.07
2023-04-04T18:59:24.290Z,28.24
2023-04-04T19:01:54.191Z,28.87
2023-04-04T19:04:22.506Z,29.77
2023-04-04T19:06:52.157Z,30.84
2023-04-04T19:09:22.235Z,30.84
2023-04-04T19:11:49.348Z,31.03
2023-04-04T19:14:16.285Z,32.11
2023-04-04T19:16:43.178Z,31.05
2023-04-04T19:19:10.153Z,29.33
2023-04-04T19:21:37.325Z,28.49
2023-04-04T19:24:04.287Z,28.62
2023-04-04T19:26:31.582Z,28.80
2023-04-04T19:28:59.187Z,28.75
2023-04-04T19:31:32.885Z,29.35
2023-04-04T19:34:03.391Z,29.73
2023-04-04T19:36:37.057Z,30.99
2023-04-04T19:39:06.085Z,30.61
2023-04-04T19:41:33.985Z,30.03
2023-04-04T19:44:01.147Z,29.81
2023-04-04T19:46:31.674Z,31.02
2023-04-04T19:48:59.318Z,30.63
2023-04-04T19:51:26.625Z,29.37
2023-04-04T19:53:57.846Z,29.78
2023-04-04T19:56:27.251Z,29.47
2023-04-04T19:58:56.244Z,28.69
2023-04-04T20:01:25.680Z,29.16
2023-04-04T20:03:54.050Z,30.72
2023-04-04T20:06:24.711Z,30.57
2023-04-04T20:08:52.680Z,30.04
2023-04-04T20:11:32.400Z,31.75
2023-04-04T20:14:01.627Z,31.45
2023-04-04T20:16:31.400Z,30.19
2023-04-04T20:18:59.339Z,31.14
2023-04-04T20:21:28.561Z,30.29
2023-04-04T20:24:03.494Z,30.43
2023-04-04T20:26:55.211Z,30.06
2023-04-04T20:29:29.650Z,30.54
2023-04-04T20:32:03.302Z,29.76
2023-04-04T20:34:30.572Z,29.98
2023-04-04T20:36:57.392Z,30.53
2023-04-04T20:39:46.402Z,30.68
2023-04-04T20:42:19.447Z,30.62
2023-04-04T20:44:46.870Z,30.88
2023-04-04T20:47:44.663Z,31.56
2023-04-04T20:50:17.444Z,32.45
2023-04-04T20:52:46.117Z,32.15
2023-04-04T20:55:13.506Z,32.08
2023-04-04T20:57:40.420Z,32.29
2023-04-04T21:00:26.124Z,32.95
2023-04-04T21:02:53.806Z,33.06
2023-04-04T21:05:31.922Z,35.18
2023-04-04T21:08:00.948Z,34.75
2023-04-04T21:10:27.687Z,33.36
2023-04-04T21:12:57.617Z,34.50
2023-04-04T21:15:38.348Z,36.58
2023-04-04T21:18:10.634Z,34.59
2023-04-04T21:20:43.244Z,32.52
2023-04-04T21:23:25.917Z,35.73
2023-04-04T21:26:01.680Z,35.55
2023-04-04T21:28:34.042Z,34.94
2023-04-04T21:31:03.010Z,36.54
2023-04-04T21:33:29.794Z,34.19
2023-04-04T21:35:56.780Z,34.06
2023-04-04T21:38:33.687Z,35.54
2023-04-04T21:41:13.300Z,36.10
2023-04-04T21:43:40.068Z,32.02
2023-04-04T21:46:07.306Z,35.29
2023-04-04T21:48:34.165Z,35.97
2023-04-04T21:51:01.112Z,34.74
2023-04-04T21:53:27.913Z,32.30
2023-04-04T21:55:54.678Z,34.21
2023-04-04T21:58:22.126Z,31.70
2023-04-04T22:00:49.177Z,32.49
2023-04-04T22:03:16.849Z,31.30
2023-04-04T22:05:44.322Z,31.02
2023-04-04T22:08:11.495Z,31.51
2023-04-04T22:10:46.433Z,30.98
2023-04-04T22:13:22.675Z,31.52
2023-04-04T22:15:50.031Z,32.42
2023-04-04T22:18:17.468Z,31.86
2023-04-04T22:20:47.516Z,32.39
2023-04-04T22:23:15.697Z,31.57
2023-04-04T22:25:42.479Z,31.18
2023-04-04T22:28:09.688Z,31.95
2023-04-04T22:30:39.249Z,30.92
2023-04-04T22:33:06.291Z,31.23
2023-04-04T22:35:33.259Z,32.45
2023-04-04T22:38:03.745Z,32.72
2023-04-04T22:40:32.717Z,32.20
2023-04-04T22:43:03.270Z,33.81
2023-04-04T22:45:30.305Z,34.78
2023-04-04T22:47:58.079Z,35.31
2023-04-04T22:50:25.079Z,33.81
2023-04-04T22:52:54.746Z,33.26
2023-04-04T22:55:24.161Z,35.68
2023-04-04T22:57:51.246Z,35.18
2023-04-04T23:00:18.934Z,33.43
2023-04-04T23:02:48.325Z,33.34
2023-04-04T23:05:17.129Z,32.94
2023-04-04T23:07:45.723Z,34.26
2023-04-04T23:10:15.635Z,38.10
2023-04-04T23:12:42.659Z,38.45
2023-04-04T23:15:09.912Z,38.33
2023-04-04T23:17:39.349Z,36.61
2023-04-04T23:20:08.582Z,33.61
2023-04-04T23:22:36.539Z,32.76
2023-04-04T23:25:08.096Z,33.92
2023-04-04T23:27:35.069Z,33.15
2023-04-04T23:30:04.784Z,34.17
2023-04-04T23:32:33.533Z,35.17
2023-04-04T23:35:00.347Z,33.86
2023-04-04T23:37:27.106Z,33.38
2023-04-04T23:39:55.013Z,33.69
2023-04-04T23:42:21.807Z,33.29
2023-04-04T23:44:48.752Z,32.79
2023-04-04T23:47:16.203Z,32.93
2023-04-04T23:49:43.291Z,33.24
2023-04-04T23:52:10.288Z,33.56
2023-04-04T23:54:37.237Z,32.86
2023-04-04T23:57:04.021Z,37.40
2023-04-04T23:59:31.190Z,34.90
